• Join FlightAware (Why Join?)
  • Login
  • US Flag 
01:31AM EDT


 

Airport Tracker/Info


-or-


 

Live Flight TrackerFlight Track Log ✈ DAL924 ✈ 05-May-2013 ✈ KGRR - KATL

Flight Track Log - Related Links

Times and Time Zones

All times are in EDT time to prevent confusion due to time zone crossing. See the DAL924 flight status page for this flight to view local times or setup timezone preferences in your user account.

Time Position Orientation Groundspeed Altitude Reporting Facility
EDT Latitude Longitude Course Direction KTS MPH feet Rate Location/Type
12:28PM 42.8153 -85.5064 191° South 209 241 2,700  Level Chicago Center
12:29PM 42.7322 -85.4983 176° South 241 277 6,400 3,000 Climbing Chicago Center
12:30PM 42.5734 -85.4814 180° South  Level Estimated
12:30PM 42.6589 -85.4978 180° South 256 295 8,900  Level Chicago Center
12:31PM 42.4709 -85.4677 180° South  Level Estimated
12:31PM 42.5808 -85.4986 180° South 274 315 10,900  Level Chicago Center
12:32PM 42.3684 -85.4541 180° South  Level Estimated
12:32PM 42.4878 -85.4992 180° South 323 372 12,100  Level Chicago Center
12:33PM 42.2659 -85.4405 180° South  Level Estimated
12:33PM 42.3828 -85.5017 181° South 366 421 14,000  Level Chicago Center
12:34PM 42.1647 -85.4664 191° South  Level FlightAware Approximate
12:35PM 42.2764 -85.5039 181° South 381 438 16,100  Level Chicago Center
12:36PM 42.1431 -85.5072 181° South 399 459 18,100 1,740 Climbing Chicago Center
12:37PM 42.0308 -85.5108 181° South 404 465 19,700 1,500 Climbing Chicago Center
12:38PM 41.9261 -85.5119 180° South 414 476 21,200 1,500 Climbing Chicago Center
12:39PM 41.7850 -85.5156 181° South 424 488 22,800 1,440 Climbing Chicago Center
12:40PM 41.6661 -85.5186 181° South 436 502 24,200 1,440 Climbing Chicago Center
12:41PM 41.5469 -85.5219 181° South 445 512 25,800 1,620 Climbing Chicago Center
12:42PM 41.4297 -85.5217 180° South 428 493 27,600 1,740 Climbing Chicago Center
12:43PM 41.2911 -85.5322 183° South 417 480 29,500 1,260 Climbing Chicago Center
12:44PM 41.1781 -85.5578 190° South 413 475 30,300 840 Climbing Chicago Center
12:45PM 41.0642 -85.5842 190° South 414 476 31,300 900 Climbing Chicago Center
12:46PM 40.9525 -85.6069 189° South 409 471 32,200 660 Climbing Chicago Center
12:47PM 40.8431 -85.6317 190° South 403 464 32,700 720 Climbing Chicago Center
12:48PM 40.7331 -85.6547 189° South 401 461 33,800 600 Climbing Chicago Center
12:49PM 40.6189 -85.6831 191° South 392 451 34,000 60 Climbing Chicago Center
12:50PM 40.5092 -85.7056 189° South 395 455 34,000  Level Chicago Center
12:51PM 40.3825 -85.7322 189° South 389 448 34,000  Level Chicago Center
12:52PM 40.2764 -85.7547 189° South 386 444 34,000  Level Chicago Center
12:53PM 40.1681 -85.7778 189° South 390 449 34,000  Level Chicago Center
12:54PM 40.1008 -85.7903 188° South 395 455 34,000  Level Indianapolis Center
12:55PM 39.9936 -85.8133 189° South 391 450 34,000  Level Indianapolis Center
12:56PM 39.8850 -85.8367 189° South 392 451 34,000  Level Indianapolis Center
12:57PM 39.7756 -85.8586 189° South 394 453 34,000  Level Indianapolis Center
12:58PM 39.6669 -85.8822 190° South 393 452 34,000  Level Indianapolis Center
12:59PM 39.5567 -85.9047 189° South 396 456 34,000  Level Indianapolis Center
01:00PM 39.4253 -85.9328 189° South 396 456 34,000  Level Indianapolis Center
01:01PM 39.3164 -85.9567 190° South 397 457 34,000  Level Indianapolis Center
01:02PM 39.2064 -85.9811 190° South 401 461 34,000  Level Indianapolis Center
01:03PM 39.0969 -86.0033 189° South 399 459 34,000  Level Indianapolis Center
01:04PM 38.9881 -86.0258 189° South 398 458 34,000  Level Indianapolis Center
01:05PM 38.8692 -86.0519 190° South 399 459 34,000  Level Indianapolis Center
01:06PM 38.7586 -86.0742 189° South 399 459 34,000  Level Indianapolis Center
01:07PM 38.6489 -86.0972 189° South 396 456 34,000  Level Indianapolis Center
01:08PM 38.5383 -86.1181 188° South 397 457 34,000 -240 Level Indianapolis Center
01:09PM 38.4261 -86.1408 189° South 401 461 33,600 -480 Descending Indianapolis Center
01:10PM 38.2889 -86.1689 189° South 410 472 33,000 -300 Descending Indianapolis Center
01:11PM 38.1733 -86.1922 189° South 415 478 33,000  Level Indianapolis Center
01:12PM 38.0581 -86.2153 189° South 416 479 33,000  Level Indianapolis Center
01:13PM 37.9431 -86.2394 189° South 415 478 33,000  Level Indianapolis Center
01:14PM 37.8300 -86.2619 189° South 409 471 33,000  Level Indianapolis Center
01:15PM 37.7197 -86.2875 190° South 404 465 33,000  Level Indianapolis Center
01:16PM 37.6083 -86.3081 188° South 399 459 33,000  Level Indianapolis Center
01:17PM 37.5122 -86.3281 189° South 405 466 33,000  Level Memphis Center
01:18PM 37.3964 -86.3522 189° South 418 481 33,000  Level Memphis Center
01:18PM 37.3586 -86.3589 188° South 417 480 33,000  Level Indianapolis Center
01:19PM 37.2783 -86.3739 188° South 427 491 33,000  Level Memphis Center
01:20PM 37.1667 -86.3978 190° South 421 484 33,000  Level Memphis Center
01:21PM 37.0381 -86.4197 188° South 426 490 33,000  Level Memphis Center
01:22PM 36.9242 -86.4408 188° South 426 490 33,000  Level Memphis Center
01:23PM 36.8114 -86.4361 178° South 419 482 33,000  Level Memphis Center
01:24PM 36.6986 -86.4261 176° South 414 476 33,000  Level Memphis Center
01:25PM 36.5858 -86.4211 178° South 414 476 33,000  Level Memphis Center
01:26PM 36.4711 -86.4139 177° South 414 476 33,000  Level Memphis Center
01:27PM 36.3561 -86.4067 177° South 414 476 33,000  Level Memphis Center
01:28PM 36.2539 -86.4014 178° South 414 476 33,000  Level Memphis Center
01:29PM 36.1347 -86.3917 176° South 421 484 33,000  Level Memphis Center
01:30PM 36.0178 -86.3844 177° South 427 491 33,000  Level Memphis Center
01:31PM 35.8986 -86.3775 177° South 427 491 33,000  Level Memphis Center
01:32PM 35.7692 -86.3683 177° South 427 491 33,000  Level Memphis Center
01:35PM 35.5325 -86.1925 149° Southeast 438 504 33,000  Level Atlanta Center
01:36PM 35.4339 -86.1136 147° Southeast 428 493 33,000  Level Atlanta Center
01:37PM 35.3369 -86.0372 147° Southeast 422 486 33,000 -300 Level Atlanta Center
01:38PM 35.2422 -85.9639 148° Southeast 414 476 32,400 -1,080 Descending Atlanta Center
01:39PM 35.1433 -85.8828 146° Southeast 408 470 30,900 -1,500 Descending Atlanta Center
01:40PM 35.0525 -85.8122 148° Southeast 403 464 29,500 -1,260 Descending Atlanta Center
01:41PM 34.9575 -85.7419 149° Southeast 403 464 28,400 -1,080 Descending Atlanta Center
01:42PM 34.8644 -85.6667 146° Southeast 403 464 27,400 -1,020 Descending Atlanta Center
01:43PM 34.7736 -85.5939 147° Southeast 403 464 26,400 -1,020 Descending Atlanta Center
01:44PM 34.6828 -85.5214 147° Southeast 403 464 25,400 -1,020 Descending Atlanta Center
01:45PM 34.5917 -85.4569 150° Southeast 398 458 24,400 -1,140 Descending Atlanta Center
01:46PM 34.5050 -85.3847 146° Southeast 385 443 23,200 -1,860 Descending Atlanta Center
01:47PM 34.4200 -85.3206 148° Southeast 375 432 20,700 -2,280 Descending Atlanta Center
01:48PM 34.3475 -85.2614 146° Southeast 365 420 18,700 -2,160 Descending Atlanta Center
01:49PM 34.2667 -85.2025 149° Southeast 350 403 16,400 -1,980 Descending Atlanta Center
01:50PM 34.1797 -85.1361 148° Southeast 338 389 14,800 -1,200 Descending Atlanta Center
01:51PM 34.1136 -85.0575 135° Southeast 333 383 14,000 -600 Descending Atlanta Center
01:52PM 34.0517 -84.9764 133° Southeast 328 377 13,700 -660 Descending Atlanta Center
01:53PM 33.9875 -84.8956 134° Southeast 328 377 12,700 -900 Descending Atlanta Center
01:54PM 33.9253 -84.8175 134° Southeast 328 377 12,000 -360 Descending Atlanta Center
01:55PM 33.8633 -84.7367 133° Southeast 328 377 12,000  Level Atlanta Center
01:55PM 33.8333 -84.7000 135° Southeast 325 374 12,000  Level Atlanta TRACON
01:56PM 33.7667 -84.6167 134° Southeast 321 369 12,000  Level Atlanta TRACON
01:57PM 33.7333 -84.5167 112° Southeast 327 376 12,000 -480 Level Atlanta TRACON
01:58PM 33.7333 -84.4167 90° East 271 312 11,100 -1,620 Descending Atlanta TRACON
01:59PM 33.7333 -84.3333 90° East 259 298 8,800 -2,220 Descending Atlanta TRACON
02:00PM 33.7333 -84.2667 90° East 244 281 6,900 -2,340 Descending Atlanta TRACON
02:01PM 33.6833 -84.2167 140° Southeast 239 275 4,400 -1,800 Descending Atlanta TRACON
02:02PM 33.6500 -84.2667 231° Southwest 200 230 3,300 -1,140 Descending Atlanta TRACON
02:03PM 33.6500 -84.3333 270° West 191 220 2,200 -960 Descending Atlanta TRACON
02:04PM 33.6500 -84.4000 270° West 150 173 1,300 -840 Descending Atlanta TRACON